createdAt,value
2023-02-24T00:02:06.445Z,1.77
2023-02-24T00:04:38.358Z,2.78
2023-02-24T00:07:08.331Z,2.10
2023-02-24T00:09:36.620Z,2.35
2023-02-24T00:12:08.766Z,1.65
2023-02-24T00:14:38.265Z,1.30
2023-02-24T00:17:10.989Z,1.42
2023-02-24T00:19:43.942Z,1.70
2023-02-24T00:22:13.087Z,3.03
2023-02-24T00:24:40.072Z,1.88
2023-02-24T00:27:07.893Z,2.35
2023-02-24T00:29:41.887Z,1.50
2023-02-24T00:32:12.330Z,2.23
2023-02-24T00:34:39.943Z,1.50
2023-02-24T00:37:07.182Z,1.95
2023-02-24T00:39:35.351Z,3.10
2023-02-24T00:42:04.861Z,1.98
2023-02-24T00:44:40.994Z,1.63
2023-02-24T00:47:10.325Z,2.67
2023-02-24T00:49:42.713Z,2.08
2023-02-24T00:52:15.984Z,1.70
2023-02-24T00:54:45.780Z,1.95
2023-02-24T00:57:14.221Z,2.17
2023-02-24T00:59:41.118Z,2.50
2023-02-24T01:02:08.127Z,1.95
2023-02-24T01:04:37.479Z,1.55
2023-02-24T01:07:10.561Z,2.08
2023-02-24T01:09:39.571Z,3.22
2023-02-24T01:12:38.422Z,1.83
2023-02-24T01:15:08.932Z,1.85
2023-02-24T01:17:37.173Z,1.70
2023-02-24T01:20:15.029Z,2.03
2023-02-24T01:22:42.768Z,2.10
2023-02-24T01:25:11.157Z,1.63
2023-02-24T01:27:40.015Z,1.20
2023-02-24T01:30:13.589Z,1.67
2023-02-24T01:32:40.755Z,1.98
2023-02-24T01:35:08.366Z,1.73
2023-02-24T01:37:35.460Z,1.30
2023-02-24T01:40:10.382Z,1.48
2023-02-24T01:42:38.748Z,1.73
2023-02-24T01:45:13.167Z,1.42
2023-02-24T01:47:40.965Z,2.22
2023-02-24T01:50:10.076Z,1.10
2023-02-24T01:52:37.689Z,1.73
2023-02-24T01:55:29.355Z,3.33
2023-02-24T01:57:58.319Z,1.63
2023-02-24T02:00:38.274Z,1.15
2023-02-24T02:03:13.532Z,0.98
2023-02-24T02:05:41.648Z,1.63
2023-02-24T02:08:10.324Z,2.30
2023-02-24T02:10:40.799Z,1.75
2023-02-24T02:13:07.709Z,1.02
2023-02-24T02:15:45.610Z,1.60
2023-02-24T02:18:32.037Z,2.30
2023-02-24T02:21:15.238Z,1.50
2023-02-24T02:23:47.958Z,1.23
2023-02-24T02:26:27.446Z,1.77
2023-02-24T02:29:22.012Z,2.05
2023-02-24T02:31:58.102Z,1.33
2023-02-24T02:34:38.756Z,1.88
2023-02-24T02:37:12.300Z,1.85
2023-02-24T02:42:30.135Z,0.98
2023-02-24T02:45:07.686Z,1.48
2023-02-24T02:47:41.581Z,1.52
2023-02-24T02:50:35.827Z,0.90
2023-02-24T02:55:43.982Z,1.35
2023-02-24T02:58:26.199Z,1.70
2023-02-24T03:01:04.581Z,1.40
2023-02-24T03:03:34.952Z,2.20
2023-02-24T03:06:08.286Z,0.73
2023-02-24T03:08:39.834Z,1.55
2023-02-24T03:11:12.038Z,1.10
2023-02-24T03:13:42.241Z,1.00
2023-02-24T03:16:12.177Z,2.35
2023-02-24T03:18:50.928Z,0.75
2023-02-24T03:21:33.087Z,1.55
2023-02-24T03:24:01.892Z,1.50
2023-02-24T03:26:52.201Z,1.25
2023-02-24T03:29:41.946Z,1.77
2023-02-24T03:32:20.379Z,0.90
2023-02-24T03:34:56.747Z,0.95
2023-02-24T03:37:26.544Z,1.00
2023-02-24T03:39:57.659Z,0.70
2023-02-24T03:42:31.254Z,0.95
2023-02-24T03:44:58.431Z,0.80
2023-02-24T03:47:26.679Z,0.82
2023-02-24T03:49:53.873Z,0.60
2023-02-24T03:52:47.389Z,0.73
2023-02-24T03:55:43.906Z,1.02
2023-02-24T03:58:38.467Z,1.05
2023-02-24T04:01:20.520Z,1.35
2023-02-24T04:04:00.571Z,1.30
2023-02-24T04:06:49.608Z,1.95
2023-02-24T04:09:44.554Z,1.17
2023-02-24T04:12:27.069Z,1.00
2023-02-24T04:15:04.675Z,1.10
2023-02-24T04:17:39.713Z,1.00
2023-02-24T04:20:16.634Z,1.90
2023-02-24T04:22:54.704Z,0.98
2023-02-24T04:25:25.874Z,1.42
2023-02-24T04:28:01.578Z,1.60
2023-02-24T04:30:33.236Z,1.35
2023-02-24T04:33:01.648Z,0.85
2023-02-24T04:35:28.695Z,1.00
2023-02-24T04:37:56.855Z,1.02
2023-02-24T04:40:24.689Z,1.15
2023-02-24T04:42:53.558Z,1.08
2023-02-24T04:45:23.449Z,1.42
2023-02-24T04:47:56.029Z,1.15
2023-02-24T04:50:25.156Z,1.00
2023-02-24T04:53:01.288Z,0.95
2023-02-24T04:55:32.954Z,0.95
2023-02-24T04:58:01.264Z,1.65
2023-02-24T05:00:35.284Z,1.00
2023-02-24T05:03:04.858Z,1.20
2023-02-24T05:05:35.470Z,0.93
2023-02-24T05:08:08.122Z,0.85
2023-02-24T05:10:46.832Z,0.68
2023-02-24T05:13:21.124Z,1.02
2023-02-24T05:15:48.549Z,1.17
2023-02-24T05:18:20.230Z,0.88
2023-02-24T05:21:14.558Z,1.35
2023-02-24T05:23:48.939Z,0.88
2023-02-24T05:26:18.352Z,0.77
2023-02-24T05:28:49.184Z,1.45
2023-02-24T05:31:24.319Z,1.20
2023-02-24T05:33:54.574Z,0.80
2023-02-24T05:36:22.209Z,1.25
2023-02-24T05:38:56.540Z,1.00
2023-02-24T05:41:34.609Z,0.98
2023-02-24T05:44:12.887Z,1.02
2023-02-24T05:46:42.097Z,0.90
2023-02-24T05:49:14.875Z,1.38
2023-02-24T05:51:43.621Z,1.67
2023-02-24T05:54:14.717Z,0.55
2023-02-24T05:56:43.756Z,1.40
2023-02-24T05:59:18.641Z,1.23
2023-02-24T06:01:49.763Z,0.88
2023-02-24T06:04:49.266Z,1.63
2023-02-24T06:07:20.890Z,1.52
2023-02-24T06:09:53.948Z,0.98
2023-02-24T06:12:24.045Z,1.15
2023-02-24T06:14:52.883Z,1.23
2023-02-24T06:17:20.787Z,1.60
2023-02-24T06:19:51.152Z,0.90
2023-02-24T06:22:20.716Z,1.42
2023-02-24T06:24:49.443Z,3.20
2023-02-24T06:27:21.525Z,1.70
2023-02-24T06:29:53.750Z,1.35
2023-02-24T06:32:24.322Z,1.13
2023-02-24T06:34:52.097Z,1.13
2023-02-24T06:37:19.650Z,1.38
2023-02-24T06:39:46.382Z,1.48
2023-02-24T06:42:13.860Z,1.52
2023-02-24T06:44:41.533Z,1.10
2023-02-24T06:47:13.052Z,1.38
2023-02-24T06:49:40.149Z,1.75
2023-02-24T06:52:06.981Z,0.90
2023-02-24T06:54:35.770Z,1.45
2023-02-24T06:57:03.913Z,2.03
2023-02-24T06:59:30.913Z,1.60
2023-02-24T07:01:59.470Z,2.47
2023-02-24T07:04:28.962Z,1.40
2023-02-24T07:07:02.724Z,1.63
2023-02-24T07:11:58.740Z,2.05
2023-02-24T07:14:29.143Z,1.65
2023-02-24T07:16:58.009Z,1.40
2023-02-24T07:19:29.043Z,1.92
2023-02-24T07:22:02.116Z,2.03
2023-02-24T07:24:39.152Z,2.72
2023-02-24T07:27:12.966Z,0.98
2023-02-24T07:32:08.623Z,1.50
2023-02-24T07:34:39.606Z,1.40
2023-02-24T07:37:07.803Z,2.05
2023-02-24T07:39:36.935Z,1.13
2023-02-24T07:42:04.735Z,1.83
2023-02-24T07:44:44.434Z,1.98
2023-02-24T07:47:11.313Z,1.80
2023-02-24T07:49:39.430Z,1.00
2023-02-24T07:52:08.060Z,1.60
2023-02-24T07:54:35.457Z,2.75
2023-02-24T07:57:02.480Z,1.20
2023-02-24T07:59:32.347Z,1.95
2023-02-24T08:02:00.445Z,1.27
2023-02-24T08:04:29.882Z,2.15
2023-02-24T08:06:58.839Z,2.03
2023-02-24T08:09:48.186Z,1.90
2023-02-24T08:12:21.204Z,2.25
2023-02-24T08:14:51.465Z,2.05
2023-02-24T08:17:20.395Z,1.40
2023-02-24T08:19:49.055Z,2.78
2023-02-24T08:22:20.343Z,1.70
2023-02-24T08:25:06.161Z,1.67
2023-02-24T08:27:39.024Z,1.42
2023-02-24T08:30:08.076Z,1.27
2023-02-24T08:32:37.017Z,1.85
2023-02-24T08:35:15.844Z,1.52
2023-02-24T08:37:53.980Z,2.00
2023-02-24T08:40:32.332Z,1.92
2023-02-24T08:43:00.661Z,2.53
2023-02-24T08:45:33.502Z,1.70
2023-02-24T08:48:00.726Z,2.33
2023-02-24T08:50:31.062Z,1.52
2023-02-24T08:52:58.844Z,2.03
2023-02-24T08:55:30.149Z,1.27
2023-02-24T08:58:01.523Z,2.00
2023-02-24T09:00:48.980Z,1.45
2023-02-24T09:03:27.997Z,2.03
2023-02-24T09:06:05.421Z,0.88
2023-02-24T09:08:38.433Z,2.08
2023-02-24T09:11:14.926Z,0.93
2023-02-24T09:13:58.088Z,1.05
2023-02-24T09:16:25.245Z,1.52
2023-02-24T09:19:10.572Z,2.03
2023-02-24T09:21:50.059Z,1.60
2023-02-24T09:24:27.031Z,1.17
2023-02-24T09:26:59.707Z,1.40
2023-02-24T09:29:35.544Z,1.63
2023-02-24T09:32:06.511Z,1.75
2023-02-24T09:34:43.874Z,0.93
2023-02-24T09:37:27.819Z,1.92
2023-02-24T09:39:57.793Z,1.35
2023-02-24T09:42:34.928Z,1.80
2023-02-24T09:45:11.286Z,1.65
2023-02-24T09:47:56.688Z,2.00
2023-02-24T09:51:03.206Z,1.13
2023-02-24T09:53:41.355Z,0.85
2023-02-24T09:56:24.377Z,2.05
2023-02-24T09:59:11.447Z,1.17
2023-02-24T10:01:52.604Z,1.85
2023-02-24T10:04:53.799Z,3.92
2023-02-24T10:07:20.439Z,1.42
2023-02-24T10:10:20.062Z,2.08
2023-02-24T10:12:54.530Z,3.03
2023-02-24T10:15:44.277Z,2.60
2023-02-24T10:18:39.753Z,2.33
2023-02-24T10:21:48.091Z,2.80
2023-02-24T10:24:29.281Z,2.92
2023-02-24T10:27:16.438Z,1.77
2023-02-24T10:30:16.023Z,2.33
2023-02-24T10:32:52.535Z,1.88
2023-02-24T10:35:25.759Z,2.08
2023-02-24T10:37:53.568Z,2.47
2023-02-24T10:40:27.401Z,1.48
2023-02-24T10:43:10.322Z,2.30
2023-02-24T10:45:46.957Z,1.63
2023-02-24T10:48:40.352Z,1.63
2023-02-24T10:53:38.159Z,2.28
2023-02-24T10:56:27.155Z,2.03
2023-02-24T10:59:20.499Z,1.58
2023-02-24T11:01:59.492Z,2.30
2023-02-24T11:04:44.046Z,2.08
2023-02-24T11:07:24.308Z,2.28
2023-02-24T11:10:12.126Z,2.05
2023-02-24T11:13:09.990Z,1.75
2023-02-24T11:16:03.848Z,4.47
2023-02-24T11:18:31.827Z,2.28
2023-02-24T11:21:12.590Z,1.98
2023-02-24T11:23:44.167Z,2.17
2023-02-24T11:26:26.376Z,2.63
2023-02-24T11:29:07.482Z,3.45
2023-02-24T11:32:01.453Z,1.98
2023-02-24T11:34:49.304Z,2.50
2023-02-24T11:37:39.624Z,2.50
2023-02-24T11:40:28.373Z,2.70
2023-02-24T11:42:56.158Z,2.47
2023-02-24T11:45:25.612Z,2.13
2023-02-24T11:48:15.941Z,3.08
2023-02-24T11:50:54.715Z,1.42
2023-02-24T11:53:30.117Z,2.13
2023-02-24T11:56:43.978Z,2.05
2023-02-24T11:59:19.576Z,1.38
2023-02-24T12:02:27.648Z,2.10
2023-02-24T12:05:09.433Z,1.52
2023-02-24T12:07:48.551Z,2.05
2023-02-24T12:10:17.478Z,2.28
2023-02-24T12:13:17.585Z,2.55
2023-02-24T12:16:04.599Z,1.73
2023-02-24T12:18:39.214Z,2.30
2023-02-24T12:21:26.562Z,2.08
2023-02-24T12:23:53.600Z,1.90
2023-02-24T12:26:25.701Z,1.88
2023-02-24T12:29:15.983Z,2.40
2023-02-24T12:31:57.145Z,2.25
2023-02-24T12:34:33.530Z,1.73
2023-02-24T12:37:18.723Z,2.00
2023-02-24T12:40:31.565Z,2.30
2023-02-24T12:43:28.007Z,2.05
2023-02-24T12:46:23.270Z,1.95
2023-02-24T12:49:14.892Z,1.92
2023-02-24T12:51:47.687Z,2.30
2023-02-24T12:54:29.877Z,2.80
2023-02-24T12:57:13.905Z,1.95
2023-02-24T12:59:41.811Z,3.45
2023-02-24T13:02:14.570Z,1.65
2023-02-24T13:05:04.966Z,2.50
2023-02-24T13:08:11.852Z,2.85
2023-02-24T13:10:58.445Z,2.28
2023-02-24T13:13:40.094Z,2.60
2023-02-24T13:16:06.818Z,1.98
2023-02-24T13:18:36.649Z,2.42
2023-02-24T13:21:14.248Z,2.55
2023-02-24T13:23:42.663Z,2.60
2023-02-24T13:26:10.442Z,2.42
2023-02-24T13:28:38.457Z,1.55
2023-02-24T13:31:12.314Z,2.17
2023-02-24T13:33:41.899Z,2.55
2023-02-24T13:36:14.211Z,2.13
2023-02-24T13:38:46.468Z,1.98
2023-02-24T13:41:40.598Z,2.00
2023-02-24T13:44:19.876Z,2.17
2023-02-24T13:47:14.506Z,2.45
2023-02-24T13:49:53.199Z,2.58
2023-02-24T13:52:22.798Z,3.20
2023-02-24T13:54:58.607Z,2.15
2023-02-24T13:57:37.346Z,2.65
2023-02-24T14:00:30.093Z,2.15
2023-02-24T14:02:57.421Z,2.50
2023-02-24T14:05:29.774Z,2.45
2023-02-24T14:07:57.777Z,2.55
2023-02-24T14:10:27.591Z,2.38
2023-02-24T14:13:15.829Z,2.35
2023-02-24T14:15:45.678Z,2.28
2023-02-24T14:18:24.555Z,2.30
2023-02-24T14:20:53.011Z,2.92
2023-02-24T14:23:25.675Z,3.05
2023-02-24T14:25:59.374Z,1.75
2023-02-24T14:31:07.642Z,2.65
2023-02-24T14:33:37.363Z,2.22
2023-02-24T14:36:08.460Z,3.35
2023-02-24T14:38:38.432Z,3.05
2023-02-24T14:41:22.992Z,2.95
2023-02-24T14:43:50.670Z,4.15
2023-02-24T14:46:18.429Z,3.35
2023-02-24T14:48:46.261Z,2.72
2023-02-24T14:51:36.967Z,3.17
2023-02-24T14:54:08.035Z,3.28
2023-02-24T14:56:36.010Z,3.72
2023-02-24T14:59:05.490Z,3.97
2023-02-24T15:01:46.529Z,3.90
2023-02-24T15:04:29.110Z,4.85
2023-02-24T15:06:55.980Z,3.35
2023-02-24T15:09:27.895Z,4.15
2023-02-24T15:11:56.085Z,3.85
2023-02-24T15:14:28.483Z,3.90
2023-02-24T15:17:02.245Z,3.95
2023-02-24T15:22:00.919Z,5.15
2023-02-24T15:24:33.851Z,3.83
2023-02-24T15:27:02.202Z,5.00
2023-02-24T15:29:31.228Z,3.70
2023-02-24T15:32:00.722Z,5.18
2023-02-24T15:34:31.070Z,4.35
2023-02-24T15:37:03.128Z,4.43
2023-02-24T15:39:32.453Z,4.35
2023-02-24T15:42:16.017Z,3.97
2023-02-24T15:44:52.994Z,3.83
2023-02-24T15:47:29.497Z,2.85
2023-02-24T15:49:56.322Z,3.60
2023-02-24T15:52:28.697Z,2.88
2023-02-24T15:54:59.382Z,2.80
2023-02-24T15:57:27.796Z,2.20
2023-02-24T15:59:54.545Z,2.60
2023-02-24T16:02:23.388Z,1.33
2023-02-24T16:04:52.041Z,1.45
2023-02-24T16:07:28.400Z,1.85
2023-02-24T16:09:57.353Z,2.17
2023-02-24T16:12:34.935Z,1.52
2023-02-24T16:15:05.474Z,1.30
2023-02-24T16:17:40.639Z,2.33
2023-02-24T16:20:31.166Z,1.63
2023-02-24T16:22:59.707Z,2.83
2023-02-24T16:25:27.539Z,1.50
2023-02-24T16:27:57.310Z,2.10
2023-02-24T16:30:30.609Z,1.25
2023-02-24T16:32:59.035Z,2.28
2023-02-24T16:35:27.480Z,2.78
2023-02-24T16:37:54.502Z,1.73
2023-02-24T16:40:39.084Z,2.60
2023-02-24T16:43:05.898Z,0.80
2023-02-24T16:45:35.544Z,0.60
2023-02-24T16:48:06.839Z,1.90
2023-02-24T16:50:38.730Z,0.95
2023-02-24T16:53:06.941Z,1.08
2023-02-24T16:55:34.233Z,1.50
2023-02-24T16:58:01.144Z,0.80
2023-02-24T17:00:27.889Z,1.33
2023-02-24T17:02:54.799Z,1.10
2023-02-24T17:05:27.102Z,1.00
2023-02-24T17:07:55.875Z,1.27
2023-02-24T17:10:23.795Z,0.47
2023-02-24T17:12:50.668Z,0.60
2023-02-24T17:15:23.720Z,1.02
2023-02-24T17:17:50.560Z,2.03
2023-02-24T17:20:19.972Z,0.75
2023-02-24T17:22:47.368Z,0.90
2023-02-24T17:25:27.085Z,1.08
2023-02-24T17:27:54.926Z,0.80
2023-02-24T17:30:33.551Z,1.02
2023-02-24T17:33:00.970Z,1.45
2023-02-24T17:35:28.635Z,0.98
2023-02-24T17:37:55.552Z,1.20
2023-02-24T17:40:22.507Z,2.53
2023-02-24T17:42:49.307Z,1.15
2023-02-24T17:45:16.726Z,1.23
2023-02-24T17:47:43.428Z,1.00
2023-02-24T17:50:12.039Z,1.38
2023-02-24T17:52:39.259Z,1.60
2023-02-24T17:55:07.210Z,2.47
2023-02-24T17:57:35.099Z,1.55
2023-02-24T18:00:02.272Z,1.50
2023-02-24T18:02:40.044Z,1.05
2023-02-24T18:05:07.670Z,0.45
2023-02-24T18:07:34.635Z,0.98
2023-02-24T18:10:01.606Z,1.60
2023-02-24T18:12:29.361Z,0.85
2023-02-24T18:15:07.799Z,1.30
2023-02-24T18:17:38.313Z,1.67
2023-02-24T18:20:07.334Z,0.65
2023-02-24T18:22:34.592Z,1.30
2023-02-24T18:25:01.386Z,0.80
2023-02-24T18:27:28.256Z,1.10
2023-02-24T18:29:55.142Z,1.13
2023-02-24T18:32:22.202Z,1.40
2023-02-24T18:34:49.256Z,2.00
2023-02-24T18:37:16.089Z,1.08
2023-02-24T18:39:42.881Z,1.27
2023-02-24T18:42:09.911Z,1.10
2023-02-24T18:44:36.777Z,1.17
2023-02-24T18:47:09.181Z,1.08
2023-02-24T18:49:36.898Z,1.75
2023-02-24T18:52:05.247Z,0.63
2023-02-24T18:54:33.944Z,1.73
2023-02-24T18:57:01.827Z,2.17
2023-02-24T18:59:29.305Z,1.50
2023-02-24T19:01:56.839Z,1.60
2023-02-24T19:04:24.311Z,1.08
2023-02-24T19:06:51.156Z,1.33
2023-02-24T19:09:21.427Z,1.27
2023-02-24T19:11:49.488Z,1.55
2023-02-24T19:14:16.611Z,2.85
2023-02-24T19:16:43.487Z,2.50
2023-02-24T19:19:16.958Z,1.77
2023-02-24T19:21:48.314Z,2.45
2023-02-24T19:24:16.911Z,0.90
2023-02-24T19:26:45.695Z,0.90
2023-02-24T19:29:12.903Z,0.70
2023-02-24T19:31:40.581Z,1.35
2023-02-24T19:34:10.720Z,1.92
2023-02-24T19:36:38.272Z,1.77
2023-02-24T19:39:08.583Z,1.33
2023-02-24T19:41:36.752Z,1.48
2023-02-24T19:44:03.608Z,1.48
2023-02-24T19:46:34.077Z,1.35
2023-02-24T19:49:01.541Z,0.60
2023-02-24T19:51:28.860Z,1.45
2023-02-24T19:53:58.331Z,0.82
2023-02-24T19:56:27.669Z,0.60
2023-02-24T19:58:55.865Z,0.95
2023-02-24T20:01:23.904Z,0.80
2023-02-24T20:03:55.439Z,0.60
2023-02-24T20:06:32.105Z,1.98
2023-02-24T20:09:00.258Z,0.70
2023-02-24T20:11:29.679Z,1.63
2023-02-24T20:13:56.509Z,1.20
2023-02-24T20:16:25.547Z,1.52
2023-02-24T20:18:55.199Z,0.80
2023-02-24T20:21:22.087Z,1.48
2023-02-24T20:23:48.920Z,1.00
2023-02-24T20:26:16.255Z,2.15
2023-02-24T20:28:44.737Z,2.60
2023-02-24T20:31:15.381Z,2.03
2023-02-24T20:33:43.630Z,2.20
2023-02-24T20:36:22.768Z,1.92
2023-02-24T20:38:50.592Z,1.42
2023-02-24T20:41:18.319Z,1.92
2023-02-24T20:43:45.007Z,2.75
2023-02-24T20:46:24.051Z,1.48
2023-02-24T20:48:52.775Z,1.65
2023-02-24T20:51:19.649Z,1.13
2023-02-24T20:53:56.792Z,1.40
2023-02-24T20:56:27.284Z,1.58
2023-02-24T20:59:03.310Z,1.42
2023-02-24T21:01:31.813Z,1.58
2023-02-24T21:03:59.282Z,1.40
2023-02-24T21:06:26.602Z,1.23
2023-02-24T21:08:53.590Z,1.25
2023-02-24T21:11:21.541Z,1.27
2023-02-24T21:13:50.527Z,1.75
2023-02-24T21:16:18.695Z,1.58
2023-02-24T21:18:48.310Z,0.80
2023-02-24T21:21:16.069Z,1.17
2023-02-24T21:23:43.492Z,1.30
2023-02-24T21:26:12.228Z,1.63
2023-02-24T21:28:40.314Z,1.20
2023-02-24T21:31:09.796Z,1.48
2023-02-24T21:33:37.476Z,0.95
2023-02-24T21:36:06.963Z,1.55
2023-02-24T21:38:34.368Z,1.88
2023-02-24T21:41:02.382Z,1.08
2023-02-24T21:43:29.735Z,1.17
2023-02-24T21:45:59.867Z,1.08
2023-02-24T21:48:26.578Z,1.52
2023-02-24T21:51:04.040Z,1.13
2023-02-24T21:53:33.578Z,1.75
2023-02-24T21:56:17.730Z,1.83
2023-02-24T21:58:59.950Z,2.30
2023-02-24T22:01:29.567Z,1.40
2023-02-24T22:03:57.951Z,2.00
2023-02-24T22:06:31.447Z,3.05
2023-02-24T22:09:01.690Z,2.22
2023-02-24T22:11:31.579Z,2.22
2023-02-24T22:13:58.359Z,1.33
2023-02-24T22:16:26.239Z,1.33
2023-02-24T22:18:55.160Z,1.75
2023-02-24T22:21:25.469Z,1.30
2023-02-24T22:23:54.098Z,1.38
2023-02-24T22:26:23.665Z,1.73
2023-02-24T22:28:51.253Z,1.77
2023-02-24T22:31:21.358Z,1.20
2023-02-24T22:33:48.895Z,1.45
2023-02-24T22:36:18.904Z,0.70
2023-02-24T22:38:46.549Z,1.35
2023-02-24T22:41:16.481Z,2.60
2023-02-24T22:43:43.951Z,0.70
2023-02-24T22:46:16.363Z,1.27
2023-02-24T22:48:43.708Z,2.20
2023-02-24T22:51:12.984Z,1.13
2023-02-24T22:53:43.052Z,1.48
2023-02-24T22:56:14.264Z,1.73
2023-02-24T22:58:41.468Z,1.73
2023-02-24T23:01:10.237Z,1.92
2023-02-24T23:03:37.673Z,0.85
2023-02-24T23:06:07.686Z,0.98
2023-02-24T23:08:37.552Z,2.05
2023-02-24T23:11:12.157Z,1.77
2023-02-24T23:13:40.991Z,1.15
2023-02-24T23:16:11.072Z,1.48
2023-02-24T23:18:38.205Z,2.08
2023-02-24T23:21:08.050Z,1.02
2023-02-24T23:23:36.643Z,1.15
2023-02-24T23:26:04.652Z,0.77
2023-02-24T23:28:31.472Z,1.20
2023-02-24T23:30:58.236Z,1.48
2023-02-24T23:33:25.611Z,0.90
2023-02-24T23:35:52.370Z,0.88
2023-02-24T23:38:19.187Z,1.35
2023-02-24T23:40:50.836Z,1.38
2023-02-24T23:43:17.908Z,0.40
2023-02-24T23:45:45.047Z,1.13
2023-02-24T23:48:13.890Z,1.00
2023-02-24T23:50:42.323Z,0.50
2023-02-24T23:53:09.467Z,1.23
2023-02-24T23:55:39.986Z,1.38
2023-02-24T23:58:07.253Z,1.02
